Time;durP1;ratioP1;P1;durP2;ratioP2;P2;SDS_P1;SDS_P2;PMS_P1;PMS_P2;Temp;Humidity;BMP_temperature;BMP_pressure;BME280_temperature;BME280_humidity;BME280_pressure;Samples;Min_cycle;Max_cycle;Signal;HPM_P1;HPM_P2
2021/04/06 00:00:09;;;;;;;11.47;4.77;;;3.10;92.80;;;;;;5073654;28;20477;-71
2021/04/06 00:02:39;;;;;;;11.20;4.90;;;3.10;92.90;;;;;;5073661;28;20429;-71
2021/04/06 00:05:08;;;;;;;10.70;4.00;;;3.10;92.90;;;;;;5073569;28;20455;-71
2021/04/06 00:07:36;;;;;;;11.63;4.33;;;3.10;92.90;;;;;;5073358;28;20486;-71
2021/04/06 00:10:08;;;;;;;14.30;4.30;;;3.10;92.90;;;;;;5073586;28;20506;-71
2021/04/06 00:12:36;;;;;;;8.10;4.17;;;3.20;93.00;;;;;;5073567;28;20453;-71
2021/04/06 00:15:06;;;;;;;10.60;4.23;;;3.20;92.80;;;;;;5072913;28;20447;-71
2021/04/06 00:17:34;;;;;;;12.40;4.10;;;3.20;92.80;;;;;;5073214;28;20439;-70
2021/04/06 00:20:02;;;;;;;7.97;4.10;;;3.20;92.70;;;;;;5073355;28;20487;-70
2021/04/06 00:22:32;;;;;;;8.57;3.77;;;3.20;92.80;;;;;;5073425;28;20441;-70
2021/04/06 00:25:00;;;;;;;11.53;4.10;;;3.20;92.80;;;;;;5074231;28;20451;-70
2021/04/06 00:27:30;;;;;;;9.67;4.03;;;3.20;92.70;;;;;;5073343;28;20464;-70
2021/04/06 00:29:58;;;;;;;8.60;3.90;;;3.20;92.80;;;;;;5073354;28;20429;-70
2021/04/06 00:32:27;;;;;;;8.73;4.07;;;3.30;92.90;;;;;;5073348;28;20449;-70
2021/04/06 00:34:58;;;;;;;8.97;3.60;;;3.30;92.80;;;;;;5073355;28;20448;-70
2021/04/06 00:37:25;;;;;;;8.40;3.50;;;3.30;92.60;;;;;;5074345;28;20474;-71
2021/04/06 00:39:59;;;;;;;9.67;3.30;;;3.30;92.60;;;;;;5073229;28;20483;-71
2021/04/06 00:42:29;;;;;;;9.20;3.33;;;3.30;92.60;;;;;;5073026;28;20896;-71
2021/04/06 00:44:58;;;;;;;9.90;3.10;;;3.30;92.50;;;;;;5073524;28;20441;-71
2021/04/06 00:47:27;;;;;;;8.37;4.03;;;3.40;92.60;;;;;;5073164;28;20473;-71
2021/04/06 00:49:55;;;;;;;11.23;3.20;;;3.40;92.60;;;;;;5073246;28;20447;-71
2021/04/06 00:52:22;;;;;;;4.27;2.60;;;3.40;92.60;;;;;;5072956;28;20449;-71
2021/04/06 00:54:53;;;;;;;10.20;3.60;;;3.40;92.50;;;;;;5073145;28;20453;-71
2021/04/06 00:57:19;;;;;;;6.00;2.90;;;3.40;92.60;;;;;;5073113;28;20494;-72
2021/04/06 01:00:16;;;;;;;12.30;3.00;;;3.40;92.60;;;;;;5073066;28;20468;-72
2021/04/06 01:02:58;;;;;;;7.00;2.27;;;3.50;92.50;;;;;;5073079;28;20426;-72
2021/04/06 01:05:24;;;;;;;6.80;2.53;;;3.50;92.20;;;;;;5072998;28;20423;-72
2021/04/06 01:07:52;;;;;;;9.47;3.20;;;3.40;92.10;;;;;;5072778;28;20460;-72
2021/04/06 01:10:19;;;;;;;16.50;3.50;;;3.50;92.10;;;;;;5073013;28;20477;-72
2021/04/06 01:12:46;;;;;;;10.87;2.63;;;3.40;91.90;;;;;;5072937;28;20436;-72
2021/04/06 01:15:13;;;;;;;3.40;2.73;;;3.50;91.90;;;;;;5072859;28;20450;-72
2021/04/06 01:17:40;;;;;;;14.13;3.27;;;3.40;91.90;;;;;;5072950;28;20565;-72
2021/04/06 01:20:10;;;;;;;5.70;2.00;;;3.40;91.90;;;;;;5072949;28;20464;-72
2021/04/06 01:22:37;;;;;;;5.90;2.80;;;3.40;92.10;;;;;;5072903;28;20820;-72
2021/04/06 01:25:05;;;;;;;14.30;2.70;;;3.40;92.20;;;;;;5072909;28;20932;-72
2021/04/06 01:27:32;;;;;;;8.37;2.50;;;3.40;92.50;;;;;;5076568;28;20449;-72
2021/04/06 01:29:58;;;;;;;11.80;2.80;;;3.40;92.10;;;;;;5076451;28;20445;-72
2021/04/06 01:32:27;;;;;;;5.33;2.50;;;3.40;92.40;;;;;;5076424;28;20446;-72
2021/04/06 01:34:55;;;;;;;12.53;2.13;;;3.40;92.40;;;;;;5076438;28;20442;-72
2021/04/06 01:37:22;;;;;;;11.47;3.20;;;3.40;92.40;;;;;;5076313;28;20472;-72
2021/04/06 01:39:50;;;;;;;18.97;2.43;;;3.40;92.30;;;;;;5075917;28;20982;-72
2021/04/06 01:42:18;;;;;;;10.10;2.63;;;3.40;92.10;;;;;;5077102;28;20800;-72
2021/04/06 01:44:48;;;;;;;12.83;3.00;;;3.40;92.00;;;;;;5076235;28;20453;-73
2021/04/06 01:47:16;;;;;;;12.63;3.13;;;3.50;91.90;;;;;;5076140;28;20476;-72
2021/04/06 01:49:43;;;;;;;6.90;2.73;;;3.40;91.70;;;;;;5075870;28;20797;-72
2021/04/06 01:52:10;;;;;;;16.00;3.07;;;3.40;91.70;;;;;;5076148;28;20448;-72
2021/04/06 01:54:38;;;;;;;12.30;3.83;;;3.40;91.80;;;;;;5076048;28;20446;-72
2021/04/06 01:57:11;;;;;;;11.70;4.10;;;3.40;91.50;;;;;;5075664;28;21041;-73
2021/04/06 01:59:42;;;;;;;6.63;2.20;;;3.40;91.70;;;;;;5075626;28;20986;-73
2021/04/06 02:02:09;;;;;;;11.43;3.50;;;3.40;91.80;;;;;;5075649;28;20896;-73
2021/04/06 02:04:37;;;;;;;9.73;2.80;;;3.40;91.70;;;;;;5075904;28;20475;-73
2021/04/06 02:07:06;;;;;;;9.30;2.70;;;3.40;91.70;;;;;;5075424;28;20541;-73
2021/04/06 02:09:33;;;;;;;12.57;2.90;;;3.40;91.80;;;;;;5075832;28;20440;-73
2021/04/06 02:11:59;;;;;;;8.03;2.70;;;3.40;91.90;;;;;;5075499;28;20472;-73
2021/04/06 02:14:25;;;;;;;13.73;2.87;;;3.40;92.10;;;;;;5075676;28;20448;-72
2021/04/06 02:16:54;;;;;;;9.50;2.03;;;3.40;92.10;;;;;;5075585;28;20471;-72
2021/04/06 02:19:26;;;;;;;14.53;3.43;;;3.40;92.10;;;;;;5075529;28;20487;-72
2021/04/06 02:21:54;;;;;;;9.60;2.70;;;3.40;91.90;;;;;;5075553;28;20449;-71
2021/04/06 02:24:33;;;;;;;10.27;2.67;;;3.40;91.90;;;;;;5075308;28;20451;-71
2021/04/06 02:27:05;;;;;;;13.93;2.30;;;3.40;91.90;;;;;;5075352;28;20468;-71
2021/04/06 02:29:36;;;;;;;7.57;2.80;;;3.40;92.00;;;;;;5075442;28;20449;-71
2021/04/06 02:32:07;;;;;;;13.80;2.37;;;3.40;92.10;;;;;;5075673;28;20776;-71
2021/04/06 02:34:34;;;;;;;5.90;2.00;;;3.40;92.20;;;;;;5075392;28;20426;-71
2021/04/06 02:37:01;;;;;;;11.23;2.00;;;3.40;92.30;;;;;;5074585;28;20465;-71
2021/04/06 02:39:28;;;;;;;13.67;2.80;;;3.40;92.30;;;;;;5074819;28;21028;-71
2021/04/06 02:41:54;;;;;;;9.83;2.20;;;3.40;92.30;;;;;;5074862;28;20514;-70
2021/04/06 02:44:20;;;;;;;14.93;2.10;;;3.30;92.40;;;;;;5074852;28;20807;-71
2021/04/06 02:46:51;;;;;;;8.13;2.30;;;3.30;92.60;;;;;;5074951;28;20469;-71
2021/04/06 02:49:18;;;;;;;6.30;2.07;;;3.30;92.70;;;;;;5074764;28;20917;-71
2021/04/06 02:51:45;;;;;;;8.07;2.20;;;3.30;92.70;;;;;;5074997;28;20432;-71
2021/04/06 02:54:13;;;;;;;8.07;2.20;;;3.30;92.70;;;;;;5074913;28;20485;-71
2021/04/06 02:56:40;;;;;;;8.40;2.53;;;3.20;92.70;;;;;;5075515;28;20476;-71
2021/04/06 02:59:14;;;;;;;7.30;2.40;;;3.20;92.80;;;;;;5074732;28;20478;-71
2021/04/06 03:01:41;;;;;;;10.47;1.90;;;3.20;92.90;;;;;;5074765;28;20444;-71
2021/04/06 03:04:22;;;;;;;6.07;2.40;;;3.20;92.90;;;;;;5074728;28;20450;-72
2021/04/06 03:06:49;;;;;;;9.53;2.60;;;3.20;93.00;;;;;;5074437;28;20467;-72
2021/04/06 03:09:18;;;;;;;16.97;3.47;;;3.20;93.10;;;;;;5075217;28;20435;-72
2021/04/06 03:11:45;;;;;;;7.80;2.43;;;3.20;93.10;;;;;;5074581;28;20540;-72
2021/04/06 03:14:12;;;;;;;13.00;4.90;;;3.20;93.10;;;;;;5074245;28;20951;-72
2021/04/06 03:16:38;;;;;;;12.40;5.57;;;3.20;93.00;;;;;;5074368;28;20489;-72
2021/04/06 03:19:06;;;;;;;12.40;5.40;;;3.20;93.10;;;;;;5074348;28;20478;-72
2021/04/06 03:21:35;;;;;;;9.83;6.03;;;3.20;93.20;;;;;;5074092;28;20789;-72
2021/04/06 03:24:02;;;;;;;17.20;5.37;;;3.20;93.30;;;;;;5074351;28;20447;-72
2021/04/06 03:26:29;;;;;;;12.90;5.03;;;3.20;93.40;;;;;;5074242;28;20509;-72
2021/04/06 03:28:58;;;;;;;11.83;4.53;;;3.20;93.50;;;;;;5074193;28;20452;-72
2021/04/06 03:31:27;;;;;;;12.07;5.87;;;3.20;93.50;;;;;;5074194;28;20447;-72
2021/04/06 03:33:56;;;;;;;17.07;6.17;;;3.10;93.50;;;;;;5074169;28;20511;-72
2021/04/06 03:36:24;;;;;;;14.57;5.80;;;3.20;93.60;;;;;;5074007;28;20517;-72
2021/04/06 03:38:52;;;;;;;13.50;6.20;;;3.20;93.50;;;;;;5074504;28;20494;-72
2021/04/06 03:41:19;;;;;;;13.90;6.20;;;3.20;93.50;;;;;;5074096;28;20833;-72
2021/04/06 03:43:45;;;;;;;12.80;5.30;;;3.20;93.40;;;;;;5073981;28;20499;-72
2021/04/06 03:46:12;;;;;;;11.73;5.17;;;3.20;93.10;;;;;;5073558;28;20845;-73
2021/04/06 03:48:39;;;;;;;16.73;6.13;;;3.20;93.00;;;;;;5072894;28;20455;-73
2021/04/06 03:51:23;;;;;;;15.17;5.47;;;3.30;93.00;;;;;;5073637;28;20530;-73
2021/04/06 03:53:51;;;;;;;14.13;5.83;;;3.20;92.80;;;;;;5073894;28;20447;-73
2021/04/06 03:56:17;;;;;;;12.37;5.30;;;3.20;92.60;;;;;;5073728;28;20614;-73
2021/04/06 03:58:45;;;;;;;14.00;5.30;;;3.20;92.60;;;;;;5073634;28;20445;-73
2021/04/06 04:01:12;;;;;;;14.20;5.20;;;3.20;92.60;;;;;;5073799;28;20453;-73
2021/04/06 04:03:39;;;;;;;11.07;5.03;;;3.10;92.50;;;;;;5073786;28;20453;-73
2021/04/06 04:06:06;;;;;;;12.83;4.87;;;3.10;92.60;;;;;;5073576;28;20492;-73
2021/04/06 04:08:32;;;;;;;11.30;4.40;;;3.10;92.60;;;;;;5073318;28;20457;-73
2021/04/06 04:10:59;;;;;;;19.83;5.07;;;3.10;92.60;;;;;;5073618;28;20452;-73
2021/04/06 04:13:26;;;;;;;6.93;3.93;;;3.00;92.70;;;;;;5073529;28;20502;-73
2021/04/06 04:15:52;;;;;;;18.07;6.03;;;3.00;92.80;;;;;;5073463;28;20461;-73
2021/04/06 04:18:18;;;;;;;15.10;5.93;;;3.00;92.80;;;;;;5073454;28;20447;-73
2021/04/06 04:20:44;;;;;;;21.40;5.80;;;2.90;92.80;;;;;;5073099;28;20484;-73
2021/04/06 04:23:11;;;;;;;7.97;4.50;;;2.90;92.90;;;;;;5073475;28;20452;-73
2021/04/06 04:25:37;;;;;;;13.33;5.10;;;2.90;92.90;;;;;;5073360;28;20460;-73
2021/04/06 04:28:04;;;;;;;18.27;5.30;;;2.80;92.90;;;;;;5073413;28;20452;-73
2021/04/06 04:30:41;;;;;;;13.37;4.17;;;2.80;92.90;;;;;;5073399;28;20456;-73
2021/04/06 04:33:10;;;;;;;11.40;4.63;;;2.80;92.90;;;;;;5073390;28;20437;-73
2021/04/06 04:35:37;;;;;;;13.13;3.90;;;2.80;92.90;;;;;;5073266;28;20477;-73
2021/04/06 04:38:04;;;;;;;11.70;4.03;;;2.80;92.70;;;;;;5073881;28;20446;-73
2021/04/06 04:40:30;;;;;;;23.23;4.70;;;2.80;92.80;;;;;;5073273;28;20485;-73
2021/04/06 04:42:57;;;;;;;12.63;3.47;;;2.70;92.80;;;;;;5073287;28;20516;-73
2021/04/06 04:45:25;;;;;;;9.00;2.90;;;2.70;92.80;;;;;;5072856;28;20947;-73
2021/04/06 04:47:52;;;;;;;11.40;5.53;;;2.60;92.70;;;;;;5072901;28;20445;-73
2021/04/06 04:50:19;;;;;;;15.17;3.30;;;2.60;92.80;;;;;;5073190;28;20439;-73
2021/04/06 04:52:47;;;;;;;15.00;2.43;;;2.60;93.00;;;;;;5072898;28;20447;-73
2021/04/06 04:55:15;;;;;;;9.50;2.50;;;2.60;93.00;;;;;;5073048;28;20551;-73
2021/04/06 04:57:42;;;;;;;12.73;2.30;;;2.60;93.00;;;;;;5073129;28;20456;-73
2021/04/06 05:00:10;;;;;;;7.93;2.23;;;2.60;93.00;;;;;;5073587;28;20461;-73
2021/04/06 05:02:37;;;;;;;7.30;2.70;;;2.60;93.00;;;;;;5077035;28;20439;-73
2021/04/06 05:05:04;;;;;;;10.93;2.27;;;2.60;92.90;;;;;;5076996;28;20448;-73
2021/04/06 05:07:31;;;;;;;12.73;2.83;;;2.60;92.80;;;;;;5076568;28;20487;-73
2021/04/06 05:09:57;;;;;;;7.37;2.03;;;2.70;92.80;;;;;;5076810;28;20467;-73
2021/04/06 05:12:23;;;;;;;7.67;2.07;;;2.70;92.60;;;;;;5076878;28;20458;-73
2021/04/06 05:14:50;;;;;;;6.03;2.03;;;2.80;92.60;;;;;;5076488;28;20930;-73
2021/04/06 05:17:17;;;;;;;5.70;2.30;;;2.70;92.30;;;;;;5076698;28;20521;-73
2021/04/06 05:19:44;;;;;;;10.53;2.80;;;2.70;92.10;;;;;;5076644;28;20489;-73
2021/04/06 05:22:10;;;;;;;4.57;1.50;;;2.70;91.90;;;;;;5076377;28;20974;-73
2021/04/06 05:24:37;;;;;;;9.10;1.80;;;2.80;91.80;;;;;;5076355;28;20447;-73
2021/04/06 05:27:04;;;;;;;9.83;1.90;;;2.80;91.70;;;;;;5076354;28;20487;-73
2021/04/06 05:29:30;;;;;;;7.93;2.30;;;2.80;91.80;;;;;;5076086;28;20436;-73
2021/04/06 05:31:56;;;;;;;5.40;1.50;;;2.80;91.50;;;;;;5076389;28;20523;-73
2021/04/06 05:34:22;;;;;;;7.77;2.30;;;2.80;91.40;;;;;;5076420;28;20464;-73
2021/04/06 05:36:50;;;;;;;6.93;2.50;;;2.90;91.40;;;;;;5076316;28;20468;-73
2021/04/06 05:39:16;;;;;;;10.57;1.97;;;2.90;91.30;;;;;;5077081;28;20480;-73
2021/04/06 05:41:45;;;;;;;8.57;2.30;;;2.90;91.30;;;;;;5076298;28;20441;-73
2021/04/06 05:44:12;;;;;;;7.47;1.80;;;2.90;91.50;;;;;;5075956;28;20950;-73
2021/04/06 05:46:40;;;;;;;8.40;2.00;;;2.90;91.60;;;;;;5076164;28;20461;-73
2021/04/06 05:49:09;;;;;;;5.90;1.93;;;3.00;91.60;;;;;;5076149;28;20447;-73
2021/04/06 05:51:38;;;;;;;8.37;1.67;;;3.00;91.60;;;;;;5076061;28;20498;-73
2021/04/06 05:54:06;;;;;;;12.30;2.27;;;3.00;91.60;;;;;;5075778;28;20896;-73
2021/04/06 05:56:33;;;;;;;8.70;1.83;;;3.00;91.60;;;;;;5075659;28;20462;-73
2021/04/06 05:59:00;;;;;;;6.73;1.90;;;3.00;91.70;;;;;;5075865;28;20448;-73
2021/04/06 06:01:30;;;;;;;11.03;2.50;;;3.00;91.70;;;;;;5075993;28;20455;-73
2021/04/06 06:03:56;;;;;;;5.13;1.63;;;3.10;91.60;;;;;;5075910;28;20520;-73
2021/04/06 06:06:23;;;;;;;4.40;1.87;;;3.10;91.70;;;;;;5075821;28;20469;-73
2021/04/06 06:08:52;;;;;;;6.77;2.80;;;3.10;91.50;;;;;;5075458;28;20456;-73
2021/04/06 06:11:20;;;;;;;9.43;2.40;;;3.10;91.60;;;;;;5075464;28;20447;-73
2021/04/06 06:13:46;;;;;;;4.70;2.13;;;3.20;91.60;;;;;;5074761;28;21014;-73
2021/04/06 06:16:16;;;;;;;7.43;2.33;;;3.20;91.40;;;;;;5075793;28;20465;-73
2021/04/06 06:18:59;;;;;;;5.50;2.90;;;3.30;91.30;;;;;;5075667;28;20559;-73
2021/04/06 06:21:41;;;;;;;4.73;2.20;;;3.30;91.20;;;;;;5075340;28;20430;-72
2021/04/06 06:24:09;;;;;;;6.83;2.23;;;3.30;91.10;;;;;;5075606;28;20428;-72
2021/04/06 06:26:36;;;;;;;6.07;2.70;;;3.30;91.30;;;;;;5075482;28;20468;-72
2021/04/06 06:29:07;;;;;;;7.47;3.13;;;3.30;91.40;;;;;;5075482;28;20448;-72
2021/04/06 06:31:36;;;;;;;8.97;3.20;;;3.30;91.60;;;;;;5075479;28;20430;-71
2021/04/06 06:34:27;;;;;;;9.20;3.30;;;3.40;91.80;;;;;;5075136;28;21028;-72
2021/04/06 06:37:09;;;;;;;6.77;3.90;;;3.50;91.70;;;;;;5075285;28;20469;-71
2021/04/06 06:39:36;;;;;;;9.40;3.93;;;3.60;91.80;;;;;;5075331;28;20479;-71
2021/04/06 06:42:06;;;;;;;9.80;4.33;;;3.60;91.60;;;;;;5075381;28;20449;-70
2021/04/06 06:44:33;;;;;;;10.23;4.23;;;3.60;91.40;;;;;;5075358;28;20443;-70
2021/04/06 06:47:05;;;;;;;17.87;4.10;;;3.60;91.50;;;;;;5074856;28;20469;-70
2021/04/06 06:49:35;;;;;;;6.93;4.13;;;3.70;91.40;;;;;;5075099;28;20444;-70
2021/04/06 06:52:01;;;;;;;9.97;3.83;;;3.70;91.20;;;;;;5075850;28;20450;-70
2021/04/06 06:54:40;;;;;;;10.27;4.93;;;3.70;91.00;;;;;;5074649;28;20443;-70
2021/04/06 06:57:11;;;;;;;11.80;4.00;;;3.80;91.10;;;;;;5074567;28;21002;-70
2021/04/06 06:59:39;;;;;;;10.60;3.67;;;3.90;91.00;;;;;;5074809;28;20465;-71
2021/04/06 07:02:23;;;;;;;14.83;3.77;;;3.80;90.60;;;;;;5074738;28;20522;-70
2021/04/06 07:04:50;;;;;;;11.10;4.17;;;3.80;90.60;;;;;;5074686;28;20447;-71
2021/04/06 07:07:16;;;;;;;10.47;3.50;;;3.90;90.40;;;;;;5074322;28;20489;-71
2021/04/06 07:09:44;;;;;;;9.83;2.90;;;4.00;90.30;;;;;;5074554;28;20484;-71
2021/04/06 07:12:14;;;;;;;9.63;3.00;;;4.00;89.30;;;;;;5074532;28;20537;-71
2021/04/06 07:14:41;;;;;;;4.30;2.53;;;4.00;89.20;;;;;;5074552;28;20444;-71
2021/04/06 07:17:10;;;;;;;8.10;3.20;;;4.10;90.00;;;;;;5074031;28;20985;-72
2021/04/06 07:19:39;;;;;;;11.70;2.97;;;4.30;90.00;;;;;;5074309;28;20487;-72
2021/04/06 07:22:08;;;;;;;8.00;2.90;;;4.40;88.20;;;;;;5074390;28;20450;-72
2021/04/06 07:24:36;;;;;;;6.23;3.20;;;4.50;86.80;;;;;;5074194;28;20450;-72
2021/04/06 07:27:07;;;;;;;9.10;2.53;;;4.60;85.90;;;;;;5074252;28;20863;-72
2021/04/06 07:29:35;;;;;;;5.27;2.60;;;4.60;85.80;;;;;;5074245;28;20490;-72
2021/04/06 07:32:02;;;;;;;7.10;2.83;;;4.60;85.50;;;;;;5074228;28;20474;-76
2021/04/06 07:34:30;;;;;;;6.70;2.50;;;4.60;85.30;;;;;;5074117;28;20478;-72
2021/04/06 07:37:00;;;;;;;6.80;2.47;;;4.50;85.30;;;;;;5073753;28;20462;-72
2021/04/06 07:39:27;;;;;;;4.23;2.90;;;4.60;84.60;;;;;;5074031;28;20474;-72
2021/04/06 07:41:53;;;;;;;8.50;3.00;;;4.70;84.60;;;;;;5074009;28;20452;-72
2021/04/06 07:44:20;;;;;;;10.90;2.50;;;4.70;84.30;;;;;;5073727;28;20974;-73
2021/04/06 07:46:49;;;;;;;7.97;2.50;;;4.70;84.10;;;;;;5073571;28;20475;-72
2021/04/06 07:49:34;;;;;;;5.97;2.70;;;4.80;83.70;;;;;;5073916;28;20443;-73
2021/04/06 07:52:02;;;;;;;5.50;2.80;;;4.90;84.80;;;;;;5074371;28;20426;-72
2021/04/06 07:54:49;;;;;;;6.17;2.50;;;5.00;83.80;;;;;;5073883;28;20428;-75
2021/04/06 07:57:15;;;;;;;9.87;2.43;;;5.00;82.80;;;;;;5073388;28;20471;-73
2021/04/06 07:59:49;;;;;;;11.27;2.37;;;5.00;83.00;;;;;;5073702;28;20466;-73
2021/04/06 08:02:30;;;;;;;6.80;3.00;;;5.10;83.40;;;;;;5073757;28;20527;-72
2021/04/06 08:05:06;;;;;;;7.50;2.37;;;5.30;82.80;;;;;;5073656;28;20858;-73
2021/04/06 08:07:34;;;;;;;5.40;2.23;;;5.40;80.20;;;;;;5073135;28;21001;-72
2021/04/06 08:10:16;;;;;;;9.37;2.60;;;5.40;79.80;;;;;;5073445;28;20534;-72
2021/04/06 08:12:45;;;;;;;6.47;2.90;;;5.40;79.00;;;;;;5060663;28;20448;-72
2021/04/06 08:15:13;;;;;;;7.63;2.60;;;5.40;79.70;;;;;;5073523;28;20465;-72
2021/04/06 08:17:51;;;;;;;5.57;2.10;;;5.50;80.20;;;;;;5074218;28;20799;-73
2021/04/06 08:20:23;;;;;;;4.33;2.00;;;5.70;83.00;;;;;;5073204;28;20976;-74
2021/04/06 08:22:52;;;;;;;4.10;2.50;;;5.90;76.40;;;;;;5073463;28;20480;-73
2021/04/06 08:25:49;;;;;;;8.07;2.60;;;5.80;76.40;;;;;;5073362;28;20493;-72
2021/04/06 08:28:38;;;;;;;1.80;1.63;;;5.80;77.00;;;;;;5073463;28;20431;-73
2021/04/06 08:31:27;;;;;;;4.00;2.30;;;5.80;77.20;;;;;;5073466;28;20523;-72
2021/04/06 08:33:55;;;;;;;7.03;2.10;;;5.70;76.10;;;;;;5073017;28;20502;-73
2021/04/06 08:36:23;;;;;;;2.30;1.70;;;5.80;78.00;;;;;;5072793;28;20456;-73
2021/04/06 08:38:49;;;;;;;3.10;1.73;;;6.00;76.90;;;;;;5073069;28;20943;-73
2021/04/06 08:41:32;;;;;;;9.50;1.87;;;6.20;76.00;;;;;;5073301;28;20480;-73
2021/04/06 08:44:00;;;;;;;3.70;1.97;;;6.50;75.70;;;;;;5072940;28;20455;-73
2021/04/06 08:46:42;;;;;;;6.30;2.70;;;6.50;75.40;;;;;;5073736;28;20551;-73
2021/04/06 08:49:16;;;;;;;9.77;3.17;;;6.50;74.80;;;;;;5072998;28;20794;-73
2021/04/06 08:52:31;;;;;;;;;;;;;;;;;;;;;
2021/04/06 08:55:41;;;;;;;6.00;2.77;;;5.90;75.10;;;;;;5072685;28;20436;-73
2021/04/06 08:58:09;;;;;;;7.53;3.93;;;5.70;75.80;;;;;;5073177;28;20428;-72
2021/04/06 09:00:39;;;;;;;4.77;3.37;;;5.70;76.20;;;;;;5073043;28;20484;-73
2021/04/06 09:03:08;;;;;;;7.27;2.90;;;5.70;77.20;;;;;;5073085;28;20444;-73
2021/04/06 09:05:35;;;;;;;4.70;2.87;;;6.00;78.10;;;;;;5073481;28;20556;-73
2021/04/06 09:08:02;;;;;;;7.97;2.57;;;6.30;76.20;;;;;;5072718;28;20452;-73
2021/04/06 09:10:38;;;;;;;5.20;2.17;;;6.50;72.30;;;;;;5072696;28;20441;-73
2021/04/06 09:13:04;;;;;;;8.90;2.33;;;6.70;69.90;;;;;;5073042;28;20425;-73
2021/04/06 09:15:31;;;;;;;6.20;2.97;;;6.80;67.80;;;;;;5072952;28;20479;-73
2021/04/06 09:18:01;;;;;;;4.27;2.57;;;7.00;70.10;;;;;;5073003;28;20441;-73
2021/04/06 09:20:28;;;;;;;4.53;3.37;;;7.10;71.00;;;;;;5072894;28;20468;-73
2021/04/06 09:22:55;;;;;;;10.13;3.20;;;7.20;69.10;;;;;;5072628;28;20817;-73
2021/04/06 09:25:24;;;;;;;4.83;2.60;;;7.20;70.10;;;;;;5072597;28;20909;-73
2021/04/06 09:27:53;;;;;;;5.23;4.20;;;7.10;67.30;;;;;;5072848;28;20444;-74
2021/04/06 09:30:32;;;;;;;5.27;3.00;;;7.00;67.30;;;;;;5072855;28;20445;-73
2021/04/06 09:32:59;;;;;;;4.80;2.30;;;7.00;68.90;;;;;;5072910;28;20433;-74
2021/04/06 09:35:26;;;;;;;5.30;2.27;;;7.00;67.60;;;;;;5072961;28;20456;-73
2021/04/06 09:37:53;;;;;;;5.50;2.00;;;7.10;69.70;;;;;;5072868;28;20440;-74
2021/04/06 09:40:28;;;;;;;5.27;2.43;;;7.20;65.80;;;;;;5073602;28;20480;-73
2021/04/06 09:42:55;;;;;;;5.23;2.60;;;7.50;68.60;;;;;;5072860;28;20435;-73
2021/04/06 09:45:21;;;;;;;4.63;2.57;;;7.70;65.10;;;;;;5072654;28;20453;-73
2021/04/06 09:47:47;;;;;;;6.50;2.77;;;7.80;64.50;;;;;;5073768;28;20461;-73
2021/04/06 09:50:14;;;;;;;4.23;2.10;;;7.80;66.00;;;;;;5076192;28;20843;-73
2021/04/06 09:52:41;;;;;;;4.73;2.70;;;7.60;63.40;;;;;;5077073;28;20444;-73
2021/04/06 09:55:10;;;;;;;8.10;2.77;;;7.60;66.50;;;;;;5076147;28;20445;-73
2021/04/06 09:57:39;;;;;;;2.63;1.87;;;7.50;66.70;;;;;;5076004;28;20460;-73
2021/04/06 10:00:09;;;;;;;3.43;1.83;;;7.10;70.10;;;;;;5075957;28;20484;-72
2021/04/06 10:02:35;;;;;;;3.17;2.40;;;6.50;73.50;;;;;;5075703;28;21055;-71
2021/04/06 10:05:02;;;;;;;3.07;2.20;;;6.20;77.80;;;;;;5075929;28;20449;-70
2021/04/06 10:07:30;;;;;;;3.47;2.33;;;6.10;81.10;;;;;;5075619;28;20476;-71
2021/04/06 10:09:58;;;;;;;4.53;2.73;;;6.20;83.30;;;;;;5075888;28;20506;-71
2021/04/06 10:12:27;;;;;;;3.77;2.60;;;6.30;84.20;;;;;;5075815;28;20441;-71
2021/04/06 10:14:54;;;;;;;2.60;2.40;;;6.50;81.80;;;;;;5075405;28;20440;-71
2021/04/06 10:17:22;;;;;;;4.10;2.23;;;6.80;80.80;;;;;;5075718;28;20472;-71
2021/04/06 10:19:56;;;;;;;2.23;1.90;;;7.10;79.40;;;;;;5075564;28;20480;-71
2021/04/06 10:22:25;;;;;;;6.47;2.23;;;7.60;79.10;;;;;;5075618;28;20483;-72
2021/04/06 10:24:56;;;;;;;4.13;2.60;;;7.90;72.00;;;;;;5075524;28;20445;-72
2021/04/06 10:27:26;;;;;;;4.80;2.43;;;8.40;72.60;;;;;;5075509;28;20471;-74
2021/04/06 10:29:56;;;;;;;5.67;1.80;;;8.80;70.40;;;;;;5075533;28;20428;-73
2021/04/06 10:32:27;;;;;;;3.63;2.20;;;9.30;67.40;;;;;;5075173;28;20922;-74
2021/04/06 10:34:59;;;;;;;9.03;2.40;;;9.60;62.30;;;;;;5075459;28;20429;-73
2021/04/06 10:37:37;;;;;;;4.43;2.47;;;9.70;60.50;;;;;;5075306;28;20523;-75
2021/04/06 10:40:19;;;;;;;2.00;1.77;;;9.80;58.50;;;;;;5075274;28;20497;-75
2021/04/06 10:42:47;;;;;;;3.73;1.70;;;10.10;56.90;;;;;;5075313;28;20428;-74
2021/04/06 10:45:15;;;;;;;7.30;2.07;;;9.90;54.30;;;;;;5075272;28;20445;-76
2021/04/06 10:47:41;;;;;;;2.70;1.40;;;9.40;53.40;;;;;;5074893;28;20456;-74
2021/04/06 10:50:08;;;;;;;9.20;1.70;;;8.80;57.10;;;;;;5075081;28;20428;-72
2021/04/06 10:52:35;;;;;;;4.40;2.30;;;8.00;59.40;;;;;;5074698;28;20943;-73
2021/04/06 10:55:03;;;;;;;3.13;1.50;;;7.30;62.30;;;;;;5075013;28;20440;-73
2021/04/06 10:57:32;;;;;;;4.50;2.00;;;6.80;65.70;;;;;;5074474;28;20935;-73
2021/04/06 11:00:16;;;;;;;3.70;1.63;;;6.40;67.80;;;;;;5074584;28;20567;-72
2021/04/06 11:02:42;;;;;;;8.90;2.20;;;6.00;70.70;;;;;;5074547;28;20433;-73
2021/04/06 11:05:10;;;;;;;3.40;2.27;;;5.80;72.90;;;;;;5074722;28;20804;-73
2021/04/06 11:07:36;;;;;;;1.80;1.70;;;5.60;76.10;;;;;;5074315;28;20490;-73
2021/04/06 11:10:07;;;;;;;3.50;1.73;;;5.20;79.40;;;;;;5074640;28;20459;-72
2021/04/06 11:12:34;;;;;;;6.03;2.17;;;5.00;81.60;;;;;;5074585;28;20421;-71
2021/04/06 11:15:01;;;;;;;3.67;1.30;;;4.80;81.80;;;;;;5074608;28;20785;-71
2021/04/06 11:17:28;;;;;;;1.97;1.20;;;4.60;82.30;;;;;;5074429;28;20467;-70
2021/04/06 11:19:56;;;;;;;0.67;0.67;;;4.30;84.30;;;;;;5074109;28;20842;-71
2021/04/06 11:22:23;;;;;;;0.63;0.50;;;4.10;86.50;;;;;;5074402;28;20453;-71
2021/04/06 11:24:51;;;;;;;1.63;0.83;;;3.90;87.70;;;;;;5074444;28;20424;-71
2021/04/06 11:27:18;;;;;;;1.03;0.77;;;3.80;88.70;;;;;;5074226;28;20514;-71
2021/04/06 11:29:46;;;;;;;2.70;0.90;;;3.70;89.60;;;;;;5074373;28;20512;-71
2021/04/06 11:32:15;;;;;;;1.80;0.90;;;3.50;90.20;;;;;;5074351;28;20460;-71
2021/04/06 11:34:43;;;;;;;1.73;1.20;;;3.50;90.60;;;;;;5074225;28;20449;-71
2021/04/06 11:37:13;;;;;;;1.40;1.00;;;3.50;90.60;;;;;;5074146;28;20470;-71
2021/04/06 11:39:42;;;;;;;2.97;0.77;;;3.50;90.70;;;;;;5073699;28;20485;-71
2021/04/06 11:42:10;;;;;;;3.63;1.10;;;3.50;90.80;;;;;;5074066;28;20804;-71
2021/04/06 11:44:37;;;;;;;1.83;1.60;;;3.50;90.80;;;;;;5074008;28;20460;-71
2021/04/06 11:47:04;;;;;;;4.13;2.63;;;3.70;91.00;;;;;;5073910;28;20520;-71
2021/04/06 11:49:31;;;;;;;2.30;1.60;;;3.90;91.30;;;;;;5073709;28;20927;-71
2021/04/06 11:51:59;;;;;;;3.07;1.33;;;4.30;91.30;;;;;;5073749;28;20480;-71
2021/04/06 11:54:25;;;;;;;2.30;1.80;;;4.70;90.80;;;;;;5073678;28;20450;-70
2021/04/06 11:56:52;;;;;;;2.73;1.77;;;5.50;90.40;;;;;;5073796;28;20470;-69
2021/04/06 11:59:18;;;;;;;4.97;2.43;;;6.50;87.60;;;;;;5073728;28;20449;-70
2021/04/06 12:01:45;;;;;;;6.93;1.77;;;7.80;83.40;;;;;;5073542;28;20440;-71
2021/04/06 12:04:11;;;;;;;4.20;1.80;;;9.20;72.90;;;;;;5075763;28;20437;-72
2021/04/06 12:06:40;;;;;;;2.17;1.50;;;10.40;64.90;;;;;;5073551;28;20472;-73
2021/04/06 12:09:08;;;;;;;2.30;1.80;;;11.60;58.90;;;;;;5073561;28;20444;-73
2021/04/06 12:11:34;;;;;;;2.73;1.83;;;12.60;57.80;;;;;;5073106;28;20421;-74
2021/04/06 12:14:01;;;;;;;4.53;1.40;;;13.30;54.20;;;;;;5073322;28;21012;-74
2021/04/06 12:16:27;;;;;;;1.80;1.40;;;13.60;53.40;;;;;;5073526;28;20465;-74
2021/04/06 12:18:53;;;;;;;2.47;1.57;;;13.50;50.70;;;;;;5073549;28;20451;-74
2021/04/06 12:21:20;;;;;;;3.43;1.50;;;12.90;48.50;;;;;;5073439;28;20473;-74
2021/04/06 12:23:46;;;;;;;4.73;1.40;;;11.90;50.40;;;;;;5073554;28;20453;-73
2021/04/06 12:26:13;;;;;;;1.87;1.23;;;11.20;51.30;;;;;;5073195;28;20472;-74
2021/04/06 12:28:40;;;;;;;6.47;1.67;;;10.60;55.00;;;;;;5073429;28;20779;-74
2021/04/06 12:31:06;;;;;;;1.63;1.27;;;10.10;55.20;;;;;;5073459;28;20473;-74
2021/04/06 12:33:32;;;;;;;6.00;2.07;;;9.70;57.00;;;;;;5073388;28;20503;-74
2021/04/06 12:35:59;;;;;;;3.67;1.57;;;9.30;58.00;;;;;;5072980;28;20975;-74
2021/04/06 12:38:25;;;;;;;4.37;1.53;;;8.70;58.60;;;;;;5073065;28;20431;-74
2021/04/06 12:40:52;;;;;;;2.50;1.30;;;8.30;60.00;;;;;;5073296;28;20512;-74
2021/04/06 12:43:19;;;;;;;1.33;1.10;;;8.20;60.80;;;;;;5073338;28;20425;-74
2021/04/06 12:45:45;;;;;;;1.27;1.00;;;8.60;60.70;;;;;;5072942;28;20974;-74
2021/04/06 12:48:11;;;;;;;2.73;1.20;;;8.90;58.90;;;;;;5072955;28;20453;-74
2021/04/06 12:50:38;;;;;;;2.70;1.40;;;9.00;62.40;;;;;;5073265;28;20445;-74
2021/04/06 12:53:04;;;;;;;2.13;2.00;;;8.90;62.10;;;;;;5072913;28;20471;-74
2021/04/06 12:55:30;;;;;;;2.10;1.17;;;8.80;60.00;;;;;;5072864;28;20903;-74
2021/04/06 12:57:57;;;;;;;1.80;1.00;;;9.40;58.20;;;;;;5073190;28;20445;-74
2021/04/06 13:00:25;;;;;;;2.97;1.40;;;10.10;54.80;;;;;;5073126;28;20839;-74
2021/04/06 13:02:52;;;;;;;3.63;1.10;;;10.70;55.00;;;;;;5073146;28;20440;-74
2021/04/06 13:05:18;;;;;;;2.23;1.20;;;11.90;54.70;;;;;;5073011;28;20539;-74